createdAt,value
2018-12-21T00:00:11.810Z,6.48
2018-12-21T00:01:11.793Z,6.41
2018-12-21T00:02:11.782Z,6.33
2018-12-21T00:03:11.771Z,6.4
2018-12-21T00:04:11.757Z,6.37
2018-12-21T00:05:11.744Z,6.3
2018-12-21T00:06:11.838Z,6.18
2018-12-21T00:07:11.715Z,6.22
2018-12-21T00:08:11.704Z,6.15
2018-12-21T00:09:11.693Z,6.17
2018-12-21T00:10:11.676Z,6.11
2018-12-21T00:11:11.668Z,6.12
2018-12-21T00:12:11.661Z,6.06
2018-12-21T00:13:11.640Z,6.06
2018-12-21T00:14:11.625Z,6.08
2018-12-21T00:15:11.615Z,6.09
2018-12-21T00:16:11.849Z,6.09
2018-12-21T00:17:11.691Z,6.12
2018-12-21T00:18:11.572Z,6.08
2018-12-21T00:19:11.560Z,6.09
2018-12-21T00:20:11.661Z,6.09
2018-12-21T00:21:11.532Z,6.09
2018-12-21T00:22:11.624Z,6.17
2018-12-21T00:23:11.506Z,6.12
2018-12-21T00:24:11.493Z,6.11
2018-12-21T00:25:11.480Z,6.14
2018-12-21T00:26:11.473Z,6.08
2018-12-21T00:27:11.559Z,6.08
2018-12-21T00:28:11.440Z,6.17
2018-12-21T00:29:11.429Z,6.15
2018-12-21T00:30:11.418Z,6.15
2018-12-21T00:31:11.400Z,6.12
2018-12-21T00:32:11.393Z,6.11
2018-12-21T00:33:11.371Z,6.12
2018-12-21T00:34:11.366Z,6.12
2018-12-21T00:35:11.347Z,6.12
2018-12-21T00:36:11.334Z,6.14
2018-12-21T00:37:11.324Z,6.12
2018-12-21T00:38:11.310Z,6.19
2018-12-21T00:39:11.298Z,6.09
2018-12-21T00:40:11.285Z,6.14
2018-12-21T00:41:11.273Z,6.06
2018-12-21T00:42:11.256Z,6.09
2018-12-21T00:43:11.241Z,6.12
2018-12-21T00:44:11.232Z,6.12
2018-12-21T00:45:11.223Z,6.08
2018-12-21T00:46:11.202Z,6.08
2018-12-21T00:47:11.487Z,6.11
2018-12-21T00:48:11.178Z,6.09
2018-12-21T00:49:11.172Z,6.03
2018-12-21T00:50:11.151Z,6.09
2018-12-21T00:51:11.134Z,5.96
2018-12-21T00:52:11.121Z,6
2018-12-21T00:53:11.110Z,5.96
2018-12-21T00:54:11.094Z,6
2018-12-21T00:55:11.082Z,5.94
2018-12-21T00:56:11.073Z,5.9
2018-12-21T00:57:11.063Z,5.9
2018-12-21T00:58:11.040Z,5.9
2018-12-21T00:59:11.029Z,5.85
2018-12-21T01:00:11.096Z,5.85
2018-12-21T01:01:11.013Z,5.85
2018-12-21T01:02:10.991Z,5.89
2018-12-21T01:03:11.614Z,5.85
2018-12-21T01:04:10.962Z,5.93
2018-12-21T01:05:10.947Z,5.85
2018-12-21T01:06:10.935Z,5.96
2018-12-21T01:07:10.923Z,5.94
2018-12-21T01:08:10.909Z,5.97
2018-12-21T01:09:10.899Z,6.01
2018-12-21T01:10:10.885Z,5.96
2018-12-21T01:11:10.869Z,6.06
2018-12-21T01:12:10.852Z,6.04
2018-12-21T01:13:11.957Z,6.04
2018-12-21T01:14:10.827Z,5.99
2018-12-21T01:15:10.810Z,6.12
2018-12-21T01:16:10.806Z,6.18
2018-12-21T01:17:10.789Z,6.31
2018-12-21T01:18:10.769Z,6.21
2018-12-21T01:19:10.761Z,6.34
2018-12-21T01:20:10.745Z,6.41
2018-12-21T01:21:10.734Z,6.41
2018-12-21T01:22:10.718Z,6.54
2018-12-21T01:23:10.706Z,6.55
2018-12-21T01:24:10.697Z,6.55
2018-12-21T01:25:10.677Z,6.62
2018-12-21T01:26:10.670Z,6.69
2018-12-21T01:27:10.651Z,6.69
2018-12-21T01:28:10.638Z,6.7
2018-12-21T01:29:10.626Z,6.71
2018-12-21T01:30:10.637Z,6.77
2018-12-21T01:31:10.602Z,6.84
2018-12-21T01:32:10.587Z,6.85
2018-12-21T01:33:10.574Z,6.85
2018-12-21T01:34:10.559Z,6.91
2018-12-21T01:35:10.667Z,6.91
2018-12-21T01:36:10.549Z,7.03
2018-12-21T01:37:10.529Z,7.13
2018-12-21T01:38:10.509Z,7.03
2018-12-21T01:39:10.503Z,7.15
2018-12-21T01:40:10.485Z,7.17
2018-12-21T01:41:10.473Z,7.2
2018-12-21T01:42:10.455Z,7.32
2018-12-21T01:43:10.450Z,7.32
2018-12-21T01:44:12.294Z,7.31
2018-12-21T01:45:10.421Z,7.27
2018-12-21T01:46:10.407Z,7.39
2018-12-21T01:47:10.394Z,7.43
2018-12-21T01:48:10.381Z,7.4
2018-12-21T01:49:10.380Z,7.42
2018-12-21T01:50:10.687Z,7.5
2018-12-21T01:51:10.343Z,7.49
2018-12-21T01:52:10.331Z,7.48
2018-12-21T01:53:10.332Z,7.53
2018-12-21T01:54:10.309Z,7.63
2018-12-21T01:55:10.295Z,7.55
2018-12-21T01:56:10.281Z,7.55
2018-12-21T01:57:10.272Z,7.68
2018-12-21T01:58:29.464Z,7.68
2018-12-21T01:59:10.247Z,7.79
2018-12-21T02:00:10.234Z,7.82
2018-12-21T02:01:10.219Z,7.77
2018-12-21T02:02:10.207Z,7.8
2018-12-21T02:03:10.194Z,7.77
2018-12-21T02:04:10.183Z,7.85
2018-12-21T02:05:24.842Z,7.87
2018-12-21T02:06:10.159Z,7.82
2018-12-21T02:07:10.147Z,7.87
2018-12-21T02:08:10.137Z,7.86
2018-12-21T02:09:10.126Z,7.87
2018-12-21T02:10:10.112Z,7.83
2018-12-21T02:11:10.096Z,7.92
2018-12-21T02:12:10.086Z,7.86
2018-12-21T02:13:10.072Z,7.87
2018-12-21T02:14:10.061Z,7.87
2018-12-21T02:15:10.052Z,7.85
2018-12-21T02:16:10.038Z,7.83
2018-12-21T02:17:10.029Z,7.87
2018-12-21T02:18:10.014Z,7.9
2018-12-21T02:19:10.005Z,7.86
2018-12-21T02:20:09.991Z,7.92
2018-12-21T02:21:10.228Z,7.97
2018-12-21T02:22:09.968Z,7.85
2018-12-21T02:23:09.957Z,7.9
2018-12-21T02:24:09.947Z,7.92
2018-12-21T02:25:09.932Z,8
2018-12-21T02:26:09.919Z,7.87
2018-12-21T02:27:09.907Z,7.87
2018-12-21T02:28:09.903Z,7.92
2018-12-21T02:29:09.885Z,7.87
2018-12-21T02:30:09.894Z,7.89
2018-12-21T02:31:09.872Z,7.92
2018-12-21T02:32:09.852Z,7.87
2018-12-21T02:33:09.836Z,7.82
2018-12-21T02:34:09.826Z,7.9
2018-12-21T02:35:09.819Z,7.82
2018-12-21T02:36:09.804Z,7.89
2018-12-21T02:37:09.789Z,7.87
2018-12-21T02:38:09.797Z,7.79
2018-12-21T02:39:09.802Z,7.82
2018-12-21T02:40:09.766Z,7.83
2018-12-21T02:41:09.741Z,7.86
2018-12-21T02:42:09.733Z,7.9
2018-12-21T02:43:09.714Z,7.83
2018-12-21T02:44:09.708Z,7.9
2018-12-21T02:45:09.690Z,8.01
2018-12-21T02:46:09.688Z,7.98
2018-12-21T02:47:09.667Z,7.97
2018-12-21T02:48:09.671Z,8.02
2018-12-21T02:49:09.645Z,8.02
2018-12-21T02:50:09.631Z,8
2018-12-21T02:51:09.625Z,8.01
2018-12-21T02:52:10.777Z,8.02
2018-12-21T02:53:09.601Z,8.07
2018-12-21T02:54:09.582Z,8.05
2018-12-21T02:55:09.574Z,8.15
2018-12-21T02:56:09.587Z,8.15
2018-12-21T02:57:09.545Z,8.12
2018-12-21T02:58:09.537Z,8.12
2018-12-21T02:59:09.524Z,8.22
2018-12-21T03:00:09.397Z,8.11
2018-12-21T03:01:09.504Z,8.19
2018-12-21T03:02:09.494Z,8.26
2018-12-21T03:03:09.481Z,8.28
2018-12-21T03:04:09.477Z,8.3
2018-12-21T03:05:09.486Z,8.25
2018-12-21T03:06:09.443Z,8.29
2018-12-21T03:07:09.432Z,8.36
2018-12-21T03:08:09.417Z,8.33
2018-12-21T03:09:09.414Z,8.34
2018-12-21T03:10:09.393Z,8.4
2018-12-21T03:11:09.380Z,8.45
2018-12-21T03:12:09.374Z,8.37
2018-12-21T03:13:09.358Z,8.37
2018-12-21T03:14:09.351Z,8.48
2018-12-21T03:15:09.341Z,8.43
2018-12-21T03:16:09.335Z,8.44
2018-12-21T03:17:09.310Z,8.38
2018-12-21T03:18:09.305Z,8.4
2018-12-21T03:19:09.293Z,8.52
2018-12-21T03:20:09.291Z,8.41
2018-12-21T03:21:09.269Z,8.5
2018-12-21T03:22:17.432Z,8.45
2018-12-21T03:23:09.243Z,8.47
2018-12-21T03:24:09.229Z,8.52
2018-12-21T03:25:09.218Z,8.45
2018-12-21T03:26:09.209Z,8.47
2018-12-21T03:27:09.197Z,8.43
2018-12-21T03:28:09.183Z,8.45
2018-12-21T03:29:09.178Z,8.44
2018-12-21T03:30:09.231Z,8.47
2018-12-21T03:31:09.166Z,8.45
2018-12-21T03:32:08.912Z,8.44
2018-12-21T03:33:09.226Z,8.36
2018-12-21T03:34:09.173Z,8.47
2018-12-21T03:35:09.146Z,8.56
2018-12-21T03:36:09.114Z,8.38
2018-12-21T03:37:09.078Z,8.48
2018-12-21T03:38:09.067Z,8.48
2018-12-21T03:39:09.055Z,8.45
2018-12-21T03:40:09.055Z,8.48
2018-12-21T03:41:09.033Z,8.52
2018-12-21T03:42:09.026Z,8.59
2018-12-21T03:43:09.011Z,8.48
2018-12-21T03:44:08.998Z,8.48
2018-12-21T03:45:08.991Z,8.5
2018-12-21T03:46:08.970Z,8.48
2018-12-21T03:47:08.963Z,8.53
2018-12-21T03:48:08.961Z,8.5
2018-12-21T03:49:08.946Z,8.48
2018-12-21T03:50:08.925Z,8.52
2018-12-21T03:51:08.917Z,8.52
2018-12-21T03:52:08.911Z,8.47
2018-12-21T03:53:08.907Z,8.43
2018-12-21T03:54:08.883Z,8.44
2018-12-21T03:55:08.875Z,8.55
2018-12-21T03:56:08.862Z,8.45
2018-12-21T03:57:08.846Z,8.47
2018-12-21T03:58:08.840Z,8.44
2018-12-21T03:59:08.823Z,8.5
2018-12-21T04:00:08.919Z,8.48
2018-12-21T04:01:08.803Z,8.47
2018-12-21T04:02:08.794Z,8.37
2018-12-21T04:03:08.787Z,8.33
2018-12-21T04:04:08.770Z,8.38
2018-12-21T04:05:08.756Z,8.29
2018-12-21T04:06:08.743Z,8.36
2018-12-21T04:07:08.736Z,8.33
2018-12-21T04:08:08.725Z,8.33
2018-12-21T04:09:08.712Z,8.16
2018-12-21T04:10:08.721Z,8.1
2018-12-21T04:11:08.692Z,8.15
2018-12-21T04:12:08.674Z,8.16
2018-12-21T04:13:08.662Z,8.16
2018-12-21T04:14:08.653Z,8.08
2018-12-21T04:15:08.643Z,8.02
2018-12-21T04:16:08.701Z,8.07
2018-12-21T04:17:08.627Z,8.15
2018-12-21T04:18:08.604Z,8
2018-12-21T04:19:08.586Z,8.04
2018-12-21T04:20:08.581Z,7.98
2018-12-21T04:21:08.565Z,8.12
2018-12-21T04:22:08.562Z,8.01
2018-12-21T04:23:08.548Z,8.15
2018-12-21T04:24:08.548Z,8.16
2018-12-21T04:25:08.526Z,8.15
2018-12-21T04:26:08.755Z,8.11
2018-12-21T04:27:08.495Z,8.12
2018-12-21T04:28:08.496Z,8.15
2018-12-21T04:29:08.474Z,8.25
2018-12-21T04:30:08.214Z,8.18
2018-12-21T04:31:08.452Z,8.3
2018-12-21T04:32:08.438Z,8.22
2018-12-21T04:33:08.425Z,8.26
2018-12-21T04:34:08.412Z,8.22
2018-12-21T04:35:08.402Z,8.3
2018-12-21T04:36:08.391Z,8.26
2018-12-21T04:37:08.383Z,8.36
2018-12-21T04:38:08.370Z,8.3
2018-12-21T04:39:08.357Z,8.29
2018-12-21T04:40:08.338Z,8.4
2018-12-21T04:41:08.336Z,8.38
2018-12-21T04:42:08.339Z,8.33
2018-12-21T04:43:08.305Z,8.34
2018-12-21T04:44:08.302Z,8.44
2018-12-21T04:45:08.288Z,8.45
2018-12-21T04:46:08.272Z,8.38
2018-12-21T04:47:08.275Z,8.5
2018-12-21T04:48:08.249Z,8.44
2018-12-21T04:49:08.236Z,8.41
2018-12-21T04:50:08.223Z,8.5
2018-12-21T04:51:08.213Z,8.53
2018-12-21T04:52:08.201Z,8.45
2018-12-21T04:53:08.193Z,8.44
2018-12-21T04:54:08.178Z,8.34
2018-12-21T04:55:08.163Z,8.43
2018-12-21T04:56:08.159Z,8.44
2018-12-21T04:57:08.398Z,8.48
2018-12-21T04:58:08.137Z,8.44
2018-12-21T04:59:09.516Z,8.47
2018-12-21T05:00:08.109Z,8.36
2018-12-21T05:01:08.112Z,8.4
2018-12-21T05:02:08.093Z,8.41
2018-12-21T05:03:08.083Z,8.48
2018-12-21T05:04:08.061Z,8.43
2018-12-21T05:05:08.067Z,8.47
2018-12-21T05:06:08.042Z,8.37
2018-12-21T05:07:16.963Z,8.3
2018-12-21T05:08:08.028Z,8.34
2018-12-21T05:09:08.005Z,8.34
2018-12-21T05:10:07.991Z,8.37
2018-12-21T05:11:07.985Z,8.3
2018-12-21T05:12:07.969Z,8.33
2018-12-21T05:13:07.976Z,8.4
2018-12-21T05:14:10.436Z,8.37
2018-12-21T05:15:07.691Z,8.37
2018-12-21T05:16:07.922Z,8.4
2018-12-21T05:17:07.913Z,8.44
2018-12-21T05:18:07.900Z,8.45
2018-12-21T05:19:07.886Z,8.48
2018-12-21T05:20:07.877Z,8.41
2018-12-21T05:21:07.865Z,8.41
2018-12-21T05:22:07.853Z,8.36
2018-12-21T05:23:07.844Z,8.37
2018-12-21T05:24:07.826Z,8.26
2018-12-21T05:25:07.817Z,8.29
2018-12-21T05:26:07.805Z,8.34
2018-12-21T05:27:07.804Z,8.34
2018-12-21T05:28:07.782Z,8.3
2018-12-21T05:29:07.779Z,8.4
2018-12-21T05:30:07.838Z,8.38
2018-12-21T05:31:07.868Z,8.34
2018-12-21T05:32:07.744Z,8.36
2018-12-21T05:33:07.726Z,8.48
2018-12-21T05:34:07.714Z,8.43
2018-12-21T05:35:07.703Z,8.43
2018-12-21T05:36:07.701Z,8.43
2018-12-21T05:37:07.686Z,8.47
2018-12-21T05:38:07.669Z,8.45
2018-12-21T05:39:07.653Z,8.41
2018-12-21T05:40:07.653Z,8.48
2018-12-21T05:41:07.630Z,8.55
2018-12-21T05:42:07.618Z,8.55
2018-12-21T05:43:07.609Z,8.48
2018-12-21T05:44:07.597Z,8.53
2018-12-21T05:45:07.593Z,8.52
2018-12-21T05:46:07.580Z,8.59
2018-12-21T05:47:07.562Z,8.52
2018-12-21T05:48:07.550Z,8.5
2018-12-21T05:49:07.537Z,8.52
2018-12-21T05:50:07.530Z,8.5
2018-12-21T05:51:07.525Z,8.53
2018-12-21T05:52:07.509Z,8.47
2018-12-21T05:53:07.495Z,8.36
2018-12-21T05:54:07.478Z,8.43
2018-12-21T05:55:07.483Z,8.48
2018-12-21T05:56:07.461Z,8.38
2018-12-21T05:57:07.447Z,8.48
2018-12-21T05:58:07.436Z,8.41
2018-12-21T05:59:07.423Z,8.36
2018-12-21T06:00:07.417Z,8.33
2018-12-21T06:01:07.399Z,8.34
2018-12-21T06:02:07.964Z,8.4
2018-12-21T06:03:07.379Z,8.33
2018-12-21T06:04:07.371Z,8.33
2018-12-21T06:05:07.356Z,8.33
2018-12-21T06:06:07.341Z,8.36
2018-12-21T06:07:07.335Z,8.33
2018-12-21T06:08:07.322Z,8.29
2018-12-21T06:09:07.309Z,8.29
2018-12-21T06:10:07.295Z,8.29
2018-12-21T06:11:07.288Z,8.29
2018-12-21T06:12:07.367Z,8.25
2018-12-21T06:13:07.258Z,8.33
2018-12-21T06:14:07.007Z,8.28
2018-12-21T06:15:07.240Z,8.19
2018-12-21T06:16:07.227Z,8.1
2018-12-21T06:17:07.259Z,8.16
2018-12-21T06:18:07.206Z,8.12
2018-12-21T06:19:07.196Z,8.11
2018-12-21T06:20:07.187Z,8.04
2018-12-21T06:21:07.165Z,8.11
2018-12-21T06:22:07.156Z,8.01
2018-12-21T06:23:14.293Z,8
2018-12-21T06:24:07.135Z,8.15
2018-12-21T06:25:07.130Z,8.16
2018-12-21T06:26:07.109Z,8
2018-12-21T06:27:07.096Z,8.12
2018-12-21T06:28:07.085Z,8.15
2018-12-21T06:29:07.077Z,8.11
2018-12-21T06:30:07.062Z,8.02
2018-12-21T06:31:07.296Z,8.2
2018-12-21T06:32:07.039Z,8.12
2018-12-21T06:33:07.029Z,8.05
2018-12-21T06:34:07.080Z,8.18
2018-12-21T06:35:07.003Z,8.15
2018-12-21T06:36:07.007Z,8.11
2018-12-21T06:37:06.985Z,8.05
2018-12-21T06:38:06.967Z,8.1
2018-12-21T06:39:06.957Z,8.05
2018-12-21T06:40:06.953Z,8.12
2018-12-21T06:41:06.946Z,8.05
2018-12-21T06:42:06.927Z,8.19
2018-12-21T06:43:06.907Z,8.1
2018-12-21T06:44:06.968Z,8.11
2018-12-21T06:45:06.988Z,8.16
2018-12-21T06:46:13.923Z,8.15
2018-12-21T06:47:06.861Z,8.05
2018-12-21T06:48:06.850Z,8.02
2018-12-21T06:49:06.838Z,8.01
2018-12-21T06:50:06.825Z,8
2018-12-21T06:51:06.905Z,8.08
2018-12-21T06:52:06.800Z,8.08
2018-12-21T06:53:06.793Z,8
2018-12-21T06:54:06.789Z,8.02
2018-12-21T06:55:06.766Z,8
2018-12-21T06:56:06.757Z,8.02
2018-12-21T06:57:06.742Z,7.98
2018-12-21T06:58:06.735Z,8.01
2018-12-21T06:59:06.722Z,8.02
2018-12-21T07:00:06.714Z,8.02
2018-12-21T07:01:06.698Z,8.04
2018-12-21T07:02:06.937Z,8
2018-12-21T07:03:06.675Z,8.11
2018-12-21T07:04:06.662Z,8.02
2018-12-21T07:05:06.651Z,8.08
2018-12-21T07:06:06.637Z,8.02
2018-12-21T07:07:06.631Z,8.08
2018-12-21T07:08:06.714Z,8.07
2018-12-21T07:09:06.605Z,8.02
2018-12-21T07:10:06.623Z,8.01
2018-12-21T07:11:06.684Z,8.02
2018-12-21T07:12:06.566Z,8.02
2018-12-21T07:13:06.554Z,8.02
2018-12-21T07:14:06.544Z,8.04
2018-12-21T07:15:06.531Z,8.04
2018-12-21T07:16:06.521Z,8
2018-12-21T07:17:06.508Z,8.02
2018-12-21T07:18:06.495Z,8.02
2018-12-21T07:19:06.488Z,8
2018-12-21T07:20:06.473Z,8
2018-12-21T07:21:06.463Z,8
2018-12-21T07:22:06.449Z,8
2018-12-21T07:23:06.438Z,8
2018-12-21T07:24:06.426Z,8.04
2018-12-21T07:25:06.415Z,8.01
2018-12-21T07:26:06.402Z,8.08
2018-12-21T07:27:06.390Z,8.07
2018-12-21T07:28:06.381Z,7.98
2018-12-21T07:29:06.365Z,8.15
2018-12-21T07:30:06.355Z,8.05
2018-12-21T07:31:06.098Z,8.19
2018-12-21T07:32:06.335Z,8.12
2018-12-21T07:33:06.319Z,8.15
2018-12-21T07:34:06.315Z,8.26
2018-12-21T07:35:06.297Z,8.22
2018-12-21T07:36:13.611Z,8.18
2018-12-21T07:37:06.272Z,8.19
2018-12-21T07:38:06.261Z,8.08
2018-12-21T07:39:06.251Z,8.22
2018-12-21T07:40:06.242Z,8.26
2018-12-21T07:41:06.225Z,8.23
2018-12-21T07:42:06.214Z,8.16
2018-12-21T07:43:06.199Z,8.19
2018-12-21T07:44:06.189Z,8.1
2018-12-21T07:45:06.176Z,8.12
2018-12-21T07:46:06.164Z,8.12
2018-12-21T07:47:06.152Z,8.02
2018-12-21T07:48:06.237Z,8.04
2018-12-21T07:49:06.128Z,8.11
2018-12-21T07:50:06.119Z,8.1
2018-12-21T07:51:06.111Z,8.11
2018-12-21T07:52:06.096Z,8.11
2018-12-21T07:53:06.089Z,8.19
2018-12-21T07:54:06.074Z,8.19
2018-12-21T07:55:06.060Z,8.15
2018-12-21T07:56:06.047Z,8.12
2018-12-21T07:57:06.044Z,8.16
2018-12-21T07:58:06.024Z,8.16
2018-12-21T07:59:06.015Z,8.12
2018-12-21T08:00:06.011Z,8.12
2018-12-21T08:01:05.989Z,8.1
2018-12-21T08:02:05.977Z,8.16
2018-12-21T08:03:05.979Z,8.15
2018-12-21T08:04:05.962Z,8.15
2018-12-21T08:05:05.941Z,8.18
2018-12-21T08:06:05.930Z,8.12
2018-12-21T08:07:05.921Z,8.2
2018-12-21T08:08:05.911Z,8.23
2018-12-21T08:09:05.895Z,8.28
2018-12-21T08:10:05.883Z,8.19
2018-12-21T08:11:05.871Z,8.22
2018-12-21T08:12:05.862Z,8.29
2018-12-21T08:13:05.853Z,8.33
2018-12-21T08:14:05.836Z,8.26
2018-12-21T08:15:05.829Z,8.34
2018-12-21T08:16:05.811Z,8.37
2018-12-21T08:17:05.800Z,8.4
2018-12-21T08:18:05.790Z,8.33
2018-12-21T08:19:05.784Z,8.34
2018-12-21T08:20:05.771Z,8.34
2018-12-21T08:21:05.765Z,8.4
2018-12-21T08:22:05.745Z,8.43
2018-12-21T08:23:05.734Z,8.34
2018-12-21T08:24:05.720Z,8.36
2018-12-21T08:25:05.712Z,8.36
2018-12-21T08:26:05.701Z,8.36
2018-12-21T08:27:05.691Z,8.48
2018-12-21T08:28:05.675Z,8.43
2018-12-21T08:29:05.663Z,8.5
2018-12-21T08:30:05.668Z,8.43
2018-12-21T08:31:05.644Z,8.4
2018-12-21T08:32:05.632Z,8.43
2018-12-21T08:33:05.621Z,8.44
2018-12-21T08:34:05.605Z,8.45
2018-12-21T08:35:05.602Z,8.45
2018-12-21T08:36:06.001Z,8.43
2018-12-21T08:37:05.572Z,8.48
2018-12-21T08:38:05.570Z,8.48
2018-12-21T08:39:05.554Z,8.48
2018-12-21T08:40:05.537Z,8.5
2018-12-21T08:41:05.532Z,8.53
2018-12-21T08:42:05.515Z,8.48
2018-12-21T08:43:05.504Z,8.59
2018-12-21T08:44:05.591Z,8.59
2018-12-21T08:45:05.486Z,8.55
2018-12-21T08:46:05.469Z,8.55
2018-12-21T08:47:05.464Z,8.48
2018-12-21T08:48:05.450Z,8.52
2018-12-21T08:49:05.469Z,8.53
2018-12-21T08:50:05.426Z,8.43
2018-12-21T08:51:05.418Z,8.47
2018-12-21T08:52:05.410Z,8.52
2018-12-21T08:53:05.498Z,8.52
2018-12-21T08:54:05.379Z,8.53
2018-12-21T08:55:05.367Z,8.48
2018-12-21T08:56:05.356Z,8.52
2018-12-21T08:57:05.346Z,8.56
2018-12-21T08:58:05.338Z,8.61
2018-12-21T08:59:05.328Z,8.63
2018-12-21T09:00:05.312Z,8.65
2018-12-21T09:01:05.300Z,8.59
2018-12-21T09:02:05.290Z,8.61
2018-12-21T09:03:05.283Z,8.66
2018-12-21T09:04:05.269Z,8.68
2018-12-21T09:05:05.258Z,8.55
2018-12-21T09:06:05.245Z,8.66
2018-12-21T09:07:05.237Z,8.62
2018-12-21T09:08:05.229Z,8.66
2018-12-21T09:09:05.219Z,8.63
2018-12-21T09:10:05.205Z,8.59
2018-12-21T09:11:05.195Z,8.59
2018-12-21T09:12:05.181Z,8.61
2018-12-21T09:13:05.201Z,8.58
2018-12-21T09:14:07.127Z,8.7
2018-12-21T09:15:05.147Z,8.66
2018-12-21T09:16:05.135Z,8.73
2018-12-21T09:17:05.376Z,8.71
2018-12-21T09:18:05.114Z,8.74
2018-12-21T09:19:05.101Z,8.81
2018-12-21T09:20:05.088Z,8.81
2018-12-21T09:21:05.084Z,8.73
2018-12-21T09:22:05.066Z,8.76
2018-12-21T09:23:05.058Z,8.7
2018-12-21T09:24:05.998Z,8.79
2018-12-21T09:25:04.799Z,8.83
2018-12-21T09:26:05.022Z,8.89
2018-12-21T09:27:05.012Z,8.92
2018-12-21T09:28:05.004Z,8.98
2018-12-21T09:29:05.023Z,8.99
2018-12-21T09:30:05.066Z,8.98
2018-12-21T09:31:04.971Z,8.99
2018-12-21T09:32:09.892Z,9.08
2018-12-21T09:33:04.948Z,9.11
2018-12-21T09:34:04.935Z,9.13
2018-12-21T09:35:04.925Z,9.11
2018-12-21T09:36:04.917Z,9.2
2018-12-21T09:37:04.906Z,9.17
2018-12-21T09:38:04.889Z,9.18
2018-12-21T09:39:04.884Z,9.23
2018-12-21T09:40:04.867Z,9.32
2018-12-21T09:41:04.861Z,9.35
2018-12-21T09:42:04.851Z,9.33
2018-12-21T09:43:04.837Z,9.32
2018-12-21T09:44:04.826Z,9.28
2018-12-21T09:45:04.823Z,9.43
2018-12-21T09:46:04.814Z,9.39
2018-12-21T09:47:04.794Z,9.46
2018-12-21T09:48:04.781Z,9.46
2018-12-21T09:49:04.775Z,9.39
2018-12-21T09:50:04.762Z,9.4
2018-12-21T09:51:04.764Z,9.47
2018-12-21T09:52:04.743Z,9.48
2018-12-21T09:53:04.732Z,9.54
2018-12-21T09:54:12.263Z,9.48
2018-12-21T09:55:04.716Z,9.53
2018-12-21T09:56:04.701Z,9.64
2018-12-21T09:57:04.691Z,9.71
2018-12-21T09:58:04.678Z,9.71
2018-12-21T09:59:04.665Z,9.75
2018-12-21T10:00:04.668Z,9.79
2018-12-21T10:01:04.648Z,9.81
2018-12-21T10:02:04.638Z,9.81
2018-12-21T10:03:04.627Z,9.76
2018-12-21T10:04:04.377Z,9.84
2018-12-21T10:05:04.605Z,9.76
2018-12-21T10:06:04.599Z,9.68
2018-12-21T10:07:04.590Z,9.74
2018-12-21T10:08:04.579Z,9.78
2018-12-21T10:09:04.688Z,9.78
2018-12-21T10:10:04.562Z,9.89
2018-12-21T10:11:04.546Z,9.83
2018-12-21T10:12:04.540Z,9.9
2018-12-21T10:13:04.539Z,9.96
2018-12-21T10:14:04.520Z,9.9
2018-12-21T10:15:04.513Z,9.96
2018-12-21T10:16:04.504Z,9.89
2018-12-21T10:17:04.488Z,9.96
2018-12-21T10:18:04.481Z,10.01
2018-12-21T10:19:04.471Z,10.07
2018-12-21T10:20:04.456Z,10.08
2018-12-21T10:21:04.447Z,10.23
2018-12-21T10:22:04.434Z,10.23
2018-12-21T10:23:04.424Z,10.23
2018-12-21T10:24:04.416Z,10.17
2018-12-21T10:25:04.407Z,10.17
2018-12-21T10:26:04.398Z,10.25
2018-12-21T10:27:04.495Z,10.23
2018-12-21T10:28:04.374Z,10.18
2018-12-21T10:29:04.376Z,10.22
2018-12-21T10:30:04.373Z,10.25
2018-12-21T10:31:04.346Z,10.22
2018-12-21T10:32:06.198Z,10.25
2018-12-21T10:33:04.327Z,10.23
2018-12-21T10:34:04.313Z,10.18
2018-12-21T10:35:04.065Z,10.27
2018-12-21T10:36:04.295Z,10.23
2018-12-21T10:37:05.297Z,10.18
2018-12-21T10:38:04.274Z,10.2
2018-12-21T10:39:04.026Z,10.22
2018-12-21T10:40:04.261Z,10.23
2018-12-21T10:41:04.246Z,10.33
2018-12-21T10:42:04.242Z,10.33
2018-12-21T10:43:04.231Z,10.3
2018-12-21T10:44:04.215Z,10.34
2018-12-21T10:45:04.206Z,10.3
2018-12-21T10:46:04.196Z,10.4
2018-12-21T10:47:04.266Z,10.41
2018-12-21T10:48:04.946Z,10.45
2018-12-21T10:49:04.168Z,10.51
2018-12-21T10:50:04.158Z,10.51
2018-12-21T10:51:04.276Z,10.53
2018-12-21T10:52:04.149Z,10.47
2018-12-21T10:53:04.128Z,10.6
2018-12-21T10:54:03.879Z,10.56
2018-12-21T10:55:04.143Z,10.53
2018-12-21T10:56:04.100Z,10.59
2018-12-21T10:57:04.087Z,10.51
2018-12-21T10:58:04.078Z,10.59
2018-12-21T10:59:04.075Z,10.6
2018-12-21T11:00:04.065Z,10.52
2018-12-21T11:01:04.053Z,10.55
2018-12-21T11:02:04.041Z,10.59
2018-12-21T11:03:04.030Z,10.47
2018-12-21T11:04:04.020Z,10.47
2018-12-21T11:05:04.010Z,10.61
2018-12-21T11:06:04.008Z,10.53
2018-12-21T11:07:03.989Z,10.6
2018-12-21T11:08:03.979Z,10.52
2018-12-21T11:09:03.971Z,10.6
2018-12-21T11:10:03.964Z,10.6
2018-12-21T11:11:03.957Z,10.59
2018-12-21T11:12:03.942Z,10.55
2018-12-21T11:13:03.934Z,10.52
2018-12-21T11:14:03.927Z,10.59
2018-12-21T11:15:03.918Z,10.59
2018-12-21T11:16:03.907Z,10.42
2018-12-21T11:17:03.895Z,10.47
2018-12-21T11:18:03.886Z,10.47
2018-12-21T11:19:03.917Z,10.41
2018-12-21T11:20:03.878Z,10.44
2018-12-21T11:21:03.861Z,10.42
2018-12-21T11:22:03.849Z,10.45
2018-12-21T11:23:03.835Z,10.45
2018-12-21T11:24:03.959Z,10.38
2018-12-21T11:25:03.823Z,10.51
2018-12-21T11:26:03.803Z,10.48
2018-12-21T11:27:03.797Z,10.47
2018-12-21T11:28:03.786Z,10.47
2018-12-21T11:29:03.779Z,10.4
2018-12-21T11:30:03.766Z,10.45
2018-12-21T11:31:03.758Z,10.38
2018-12-21T11:32:03.750Z,10.47
2018-12-21T11:33:03.749Z,10.47
2018-12-21T11:34:03.726Z,10.45
2018-12-21T11:35:03.718Z,10.42
2018-12-21T11:36:03.708Z,10.34
2018-12-21T11:37:03.695Z,10.42
2018-12-21T11:38:03.690Z,10.44
2018-12-21T11:39:03.678Z,10.48
2018-12-21T11:40:03.668Z,10.45
2018-12-21T11:41:03.661Z,10.42
2018-12-21T11:42:03.650Z,10.34
2018-12-21T11:43:03.635Z,10.34
2018-12-21T11:44:03.633Z,10.26
2018-12-21T11:45:03.621Z,10.32
2018-12-21T11:46:03.612Z,10.32
2018-12-21T11:47:03.602Z,10.3
2018-12-21T11:48:03.592Z,10.33
2018-12-21T11:49:03.582Z,10.17
2018-12-21T11:50:03.572Z,10.18
2018-12-21T11:51:03.560Z,10.2
2018-12-21T11:52:03.556Z,10.17
2018-12-21T11:53:03.548Z,10.18
2018-12-21T11:54:03.534Z,10.17
2018-12-21T11:55:03.885Z,10.27
2018-12-21T11:56:03.513Z,10.23
2018-12-21T11:57:03.601Z,10.25
2018-12-21T11:58:03.502Z,10.17
2018-12-21T11:59:03.494Z,10.22
2018-12-21T12:00:03.485Z,10.15
2018-12-21T12:01:03.463Z,10.22
2018-12-21T12:02:03.451Z,10.18
2018-12-21T12:03:03.453Z,10.17
2018-12-21T12:04:03.433Z,10.2
2018-12-21T12:05:05.561Z,10.23
2018-12-21T12:06:03.416Z,10.23
2018-12-21T12:07:03.407Z,10.17
2018-12-21T12:08:03.641Z,10.18
2018-12-21T12:09:10.871Z,10.11
2018-12-21T12:10:03.373Z,10.09
2018-12-21T12:11:03.363Z,10.08
2018-12-21T12:12:03.348Z,10.07
2018-12-21T12:13:03.339Z,10.05
2018-12-21T12:14:03.331Z,10.11
2018-12-21T12:15:03.324Z,10.04
2018-12-21T12:16:03.379Z,10.02
2018-12-21T12:17:03.600Z,10.01
2018-12-21T12:18:03.286Z,10.01
2018-12-21T12:19:03.278Z,10.01
2018-12-21T12:20:03.271Z,9.91
2018-12-21T12:21:03.259Z,9.99
2018-12-21T12:22:03.249Z,9.94
2018-12-21T12:23:03.236Z,9.9
2018-12-21T12:24:03.226Z,9.87
2018-12-21T12:25:03.349Z,9.86
2018-12-21T12:26:03.210Z,9.79
2018-12-21T12:27:03.196Z,9.76
2018-12-21T12:28:03.260Z,9.79
2018-12-21T12:29:03.177Z,9.76
2018-12-21T12:30:03.171Z,9.78
2018-12-21T12:31:03.157Z,9.72
2018-12-21T12:32:03.145Z,9.72
2018-12-21T12:33:03.135Z,9.69
2018-12-21T12:34:03.122Z,9.71
2018-12-21T12:35:03.113Z,9.75
2018-12-21T12:36:03.107Z,9.69
2018-12-21T12:37:03.095Z,9.66
2018-12-21T12:38:03.082Z,9.71
2018-12-21T12:39:03.074Z,9.72
2018-12-21T12:40:03.181Z,9.72
2018-12-21T12:41:11.125Z,9.74
2018-12-21T12:42:03.774Z,9.69
2018-12-21T12:43:03.029Z,9.66
2018-12-21T12:44:03.026Z,9.66
2018-12-21T12:45:03.011Z,9.65
2018-12-21T12:46:03.007Z,9.68
2018-12-21T12:47:02.989Z,9.64
2018-12-21T12:48:02.978Z,9.58
2018-12-21T12:49:02.983Z,9.57
2018-12-21T12:50:02.961Z,9.47
2018-12-21T12:51:02.948Z,9.56
2018-12-21T12:52:02.940Z,9.53
2018-12-21T12:53:02.930Z,9.47
2018-12-21T12:54:02.922Z,9.4
2018-12-21T12:57:06.968Z,9.4
2018-12-21T12:57:16.788Z,9.48
2018-12-21T12:58:16.770Z,9.38
2018-12-21T12:59:16.828Z,9.42
2018-12-21T13:00:16.751Z,9.32
2018-12-21T13:01:16.736Z,9.42
2018-12-21T13:02:16.723Z,9.33
2018-12-21T13:03:16.722Z,9.35
2018-12-21T13:04:16.750Z,9.31
2018-12-21T13:05:16.689Z,9.29
2018-12-21T13:06:16.681Z,9.23
2018-12-21T13:07:16.669Z,9.18
2018-12-21T13:08:16.660Z,9.17
2018-12-21T13:09:16.651Z,9.15
2018-12-21T13:10:16.637Z,9.13
2018-12-21T13:11:16.627Z,9.08
2018-12-21T13:12:16.868Z,9.17
2018-12-21T13:13:16.610Z,9.11
2018-12-21T13:14:19.034Z,8.98
2018-12-21T13:15:16.589Z,8.99
2018-12-21T13:16:16.575Z,9.04
2018-12-21T13:17:16.629Z,9.08
2018-12-21T13:18:16.555Z,9.04
2018-12-21T13:19:16.543Z,9.01